createdAt,value
2018-07-24T00:01:06.583Z,66.76
2018-07-24T00:03:35.477Z,65.92
2018-07-24T00:06:04.370Z,66.42
2018-07-24T00:08:33.466Z,67.20
2018-07-24T00:11:02.391Z,67.75
2018-07-24T00:13:31.363Z,67.06
2018-07-24T00:16:00.291Z,67.17
2018-07-24T00:18:29.260Z,66.11
2018-07-24T00:20:58.177Z,67.12
2018-07-24T00:23:27.110Z,66.49
2018-07-24T00:25:56.109Z,66.67
2018-07-24T00:28:25.072Z,67.48
2018-07-24T00:30:54.103Z,67.42
2018-07-24T00:33:23.058Z,67.61
2018-07-24T00:35:52.080Z,67.40
2018-07-24T00:38:20.975Z,67.07
2018-07-24T00:40:49.905Z,67.89
2018-07-24T00:43:18.852Z,67.96
2018-07-24T00:45:47.755Z,68.56
2018-07-24T00:48:16.653Z,69.54
2018-07-24T00:50:45.610Z,67.35
2018-07-24T00:53:14.491Z,68.56
2018-07-24T00:55:43.434Z,68.85
2018-07-24T00:58:12.335Z,68.57
2018-07-24T01:00:41.265Z,69.11
2018-07-24T01:03:10.270Z,69.53
2018-07-24T01:05:39.184Z,69.30
2018-07-24T01:08:08.076Z,70.16
2018-07-24T01:10:36.987Z,69.96
2018-07-24T01:13:06.039Z,70.25
2018-07-24T01:15:35.076Z,70.27
2018-07-24T01:18:04.023Z,70.74
2018-07-24T01:20:33.072Z,70.97
2018-07-24T01:23:02.084Z,70.60
2018-07-24T01:25:31.343Z,71.17
2018-07-24T01:28:00.282Z,71.29
2018-07-24T01:30:29.211Z,70.85
2018-07-24T01:32:58.146Z,70.60
2018-07-24T01:35:27.175Z,70.89
2018-07-24T01:37:56.192Z,71.41
2018-07-24T01:40:25.164Z,70.94
2018-07-24T01:42:54.073Z,72.13
2018-07-24T01:45:23.018Z,72.59
2018-07-24T01:47:51.959Z,73.00
2018-07-24T01:50:20.877Z,72.98
2018-07-24T01:52:49.795Z,72.28
2018-07-24T01:55:18.732Z,73.93
2018-07-24T01:57:47.650Z,74.08
2018-07-24T02:00:17.900Z,74.08
2018-07-24T02:02:47.715Z,73.43
2018-07-24T02:05:16.611Z,73.77
2018-07-24T02:07:45.499Z,74.36
2018-07-24T02:10:14.412Z,74.09
2018-07-24T02:12:43.332Z,73.18
2018-07-24T02:15:12.246Z,74.64
2018-07-24T02:17:41.161Z,74.44
2018-07-24T02:20:10.080Z,74.43
2018-07-24T02:22:38.992Z,74.98
2018-07-24T02:25:07.982Z,74.57
2018-07-24T02:27:36.908Z,74.49
2018-07-24T02:30:06.234Z,74.70
2018-07-24T02:32:35.124Z,74.20
2018-07-24T02:35:04.238Z,74.57
2018-07-24T02:37:33.252Z,74.95
2018-07-24T02:40:02.168Z,76.03
2018-07-24T02:42:31.359Z,75.89
2018-07-24T02:45:00.280Z,76.27
2018-07-24T02:47:29.208Z,75.83
2018-07-24T02:49:58.119Z,76.44
2018-07-24T02:52:27.032Z,75.79
2018-07-24T02:54:55.937Z,75.75
2018-07-24T02:57:24.855Z,76.14
2018-07-24T02:59:53.756Z,76.41
2018-07-24T03:02:22.672Z,77.27
2018-07-24T03:04:51.563Z,76.63
2018-07-24T03:07:20.459Z,76.99
2018-07-24T03:09:49.371Z,76.58
2018-07-24T03:12:18.343Z,76.73
2018-07-24T03:14:47.275Z,75.90
2018-07-24T03:17:16.195Z,77.46
2018-07-24T03:19:45.323Z,77.57
2018-07-24T03:22:14.247Z,77.43
2018-07-24T03:24:44.123Z,76.65
2018-07-24T03:27:13.132Z,77.18
2018-07-24T03:29:42.040Z,77.31
2018-07-24T03:32:11.249Z,78.23
2018-07-24T03:34:40.241Z,78.35
2018-07-24T03:37:09.146Z,76.69
2018-07-24T03:39:38.116Z,77.46
2018-07-24T03:42:07.031Z,77.05
2018-07-24T03:44:35.973Z,76.87
2018-07-24T03:47:04.882Z,76.27
2018-07-24T03:49:33.826Z,76.52
2018-07-24T03:52:02.743Z,76.00
2018-07-24T03:54:31.665Z,76.22
2018-07-24T03:57:00.631Z,76.59
2018-07-24T03:59:29.651Z,75.87
2018-07-24T04:01:58.695Z,76.20
2018-07-24T04:04:28.141Z,75.92
2018-07-24T04:06:57.075Z,75.33
2018-07-24T04:09:26.000Z,75.14
2018-07-24T04:11:55.005Z,76.02
2018-07-24T04:14:23.943Z,75.87
2018-07-24T04:16:52.848Z,75.66
2018-07-24T04:19:21.751Z,75.91
2018-07-24T04:21:50.656Z,75.07
2018-07-24T04:24:19.565Z,75.14
2018-07-24T04:26:48.483Z,75.06
2018-07-24T04:29:17.378Z,74.22
2018-07-24T04:31:46.315Z,73.99
2018-07-24T04:34:15.257Z,73.67
2018-07-24T04:36:44.166Z,73.84
2018-07-24T04:39:13.076Z,73.54
2018-07-24T04:41:41.990Z,73.45
2018-07-24T04:44:10.928Z,73.37
2018-07-24T04:46:39.869Z,73.62
2018-07-24T04:49:08.785Z,73.59
2018-07-24T04:51:37.693Z,73.76
2018-07-24T04:54:06.652Z,73.68
2018-07-24T04:56:35.660Z,73.86
2018-07-24T04:59:04.594Z,72.69
2018-07-24T05:01:33.549Z,72.98
2018-07-24T05:04:02.463Z,72.54
2018-07-24T05:06:31.431Z,72.71
2018-07-24T05:09:00.331Z,72.51
2018-07-24T05:11:29.232Z,71.80
2018-07-24T05:13:58.132Z,72.42
2018-07-24T05:16:27.047Z,70.89
2018-07-24T05:18:55.963Z,71.44
2018-07-24T05:21:24.879Z,70.43
2018-07-24T05:23:54.015Z,70.46
2018-07-24T05:26:22.903Z,70.39
2018-07-24T05:28:51.832Z,69.87
2018-07-24T05:31:20.769Z,70.13
2018-07-24T05:33:49.695Z,69.62
2018-07-24T05:36:18.606Z,68.09
2018-07-24T05:38:47.771Z,68.54
2018-07-24T05:41:16.628Z,67.69
2018-07-24T05:43:45.549Z,68.25
2018-07-24T05:46:14.491Z,67.46
2018-07-24T05:48:43.468Z,66.66
2018-07-24T05:51:12.383Z,67.94
2018-07-24T05:53:41.408Z,66.29
2018-07-24T05:56:10.345Z,66.41
2018-07-24T05:58:39.246Z,65.92
2018-07-24T06:01:08.191Z,65.05
2018-07-24T06:03:37.132Z,62.95
2018-07-24T06:06:06.096Z,61.08
2018-07-24T06:08:35.051Z,56.68
2018-07-24T06:11:04.034Z,52.36
2018-07-24T06:13:32.994Z,47.31
2018-07-24T06:16:02.775Z,46.52
2018-07-24T06:18:31.920Z,43.36
2018-07-24T06:21:00.927Z,42.83
2018-07-24T06:23:30.003Z,41.32
2018-07-24T06:25:58.845Z,40.71
2018-07-24T06:28:27.803Z,39.88
2018-07-24T06:30:56.741Z,40.97
2018-07-24T06:33:26.706Z,40.82
2018-07-24T06:35:55.685Z,40.80
2018-07-24T06:38:24.624Z,39.01
2018-07-24T06:40:53.641Z,36.94
2018-07-24T06:43:22.579Z,36.60
2018-07-24T06:45:51.514Z,36.81
2018-07-24T06:48:20.477Z,38.08
2018-07-24T06:50:49.590Z,38.56
2018-07-24T06:53:18.549Z,36.85
2018-07-24T06:55:47.496Z,36.84
2018-07-24T06:58:16.516Z,34.86
2018-07-24T07:00:45.517Z,36.63
2018-07-24T07:03:14.725Z,36.31
2018-07-24T07:05:43.675Z,35.36
2018-07-24T07:08:12.686Z,38.85
2018-07-24T07:10:41.583Z,37.55
2018-07-24T07:13:10.551Z,38.62
2018-07-24T07:15:39.419Z,37.27
2018-07-24T07:18:09.384Z,36.56
2018-07-24T07:20:38.460Z,36.86
2018-07-24T07:23:07.356Z,35.74
2018-07-24T07:25:36.349Z,37.20
2018-07-24T07:28:05.498Z,35.42
2018-07-24T07:30:34.436Z,34.42
2018-07-24T07:33:03.328Z,36.24
2018-07-24T07:35:32.270Z,36.37
2018-07-24T07:38:01.462Z,37.91
2018-07-24T07:40:30.456Z,35.49
2018-07-24T07:42:59.375Z,36.67
2018-07-24T07:45:28.308Z,36.58
2018-07-24T07:47:57.568Z,34.91
2018-07-24T07:50:26.534Z,33.08
2018-07-24T07:52:55.573Z,36.36
2018-07-24T07:55:24.614Z,35.55
2018-07-24T07:57:53.521Z,35.20
2018-07-24T08:00:22.417Z,35.18
2018-07-24T08:02:51.533Z,35.69
2018-07-24T08:05:20.514Z,35.09
2018-07-24T08:07:49.729Z,35.70
2018-07-24T08:10:18.722Z,37.13
2018-07-24T08:12:47.821Z,36.07
2018-07-24T08:15:16.744Z,34.99
2018-07-24T08:17:45.633Z,34.89
2018-07-24T08:20:14.539Z,37.21
2018-07-24T08:22:43.539Z,37.30
2018-07-24T08:25:12.455Z,36.88
2018-07-24T08:27:41.496Z,37.72
2018-07-24T08:30:10.601Z,38.08
2018-07-24T08:32:39.523Z,37.35
2018-07-24T08:35:08.423Z,34.45
2018-07-24T08:37:38.677Z,34.98
2018-07-24T08:40:07.840Z,34.55
2018-07-24T08:42:37.089Z,33.47
2018-07-24T08:45:06.904Z,34.93
2018-07-24T08:47:35.875Z,36.79
2018-07-24T08:50:05.282Z,36.46
2018-07-24T08:52:34.501Z,32.91
2018-07-24T08:55:03.738Z,34.12
2018-07-24T08:57:32.564Z,33.30
2018-07-24T09:00:01.586Z,34.41
2018-07-24T09:02:30.479Z,33.64
2018-07-24T09:04:59.379Z,32.43
2018-07-24T09:07:28.272Z,33.43
2018-07-24T09:09:57.244Z,34.23
2018-07-24T09:12:26.135Z,34.33
2018-07-24T09:14:55.083Z,31.63
2018-07-24T09:17:24.018Z,33.53
2018-07-24T09:19:52.930Z,34.24
2018-07-24T09:22:21.892Z,34.01
2018-07-24T09:24:50.844Z,34.57
2018-07-24T09:27:19.787Z,36.00
2018-07-24T09:29:48.688Z,34.43
2018-07-24T09:32:18.664Z,36.73
2018-07-24T09:34:47.586Z,36.25
2018-07-24T09:37:16.493Z,36.09
2018-07-24T09:39:45.378Z,37.77
2018-07-24T09:42:14.285Z,37.62
2018-07-24T09:44:43.165Z,34.53
2018-07-24T09:47:12.061Z,34.38
2018-07-24T09:49:40.973Z,34.76
2018-07-24T09:52:09.899Z,33.23
2018-07-24T09:54:38.801Z,32.93
2018-07-24T09:57:07.720Z,33.39
2018-07-24T09:59:36.612Z,31.98
2018-07-24T10:02:05.651Z,34.63
2018-07-24T10:04:34.567Z,32.09
2018-07-24T10:07:03.498Z,31.15
2018-07-24T10:09:32.465Z,30.93
2018-07-24T10:12:01.430Z,32.82
2018-07-24T10:14:30.380Z,33.77
2018-07-24T10:16:59.438Z,32.05
2018-07-24T10:19:28.557Z,31.21
2018-07-24T10:21:57.596Z,32.66
2018-07-24T10:24:26.586Z,32.29
2018-07-24T10:26:55.477Z,32.89
2018-07-24T10:29:24.565Z,34.13
2018-07-24T10:31:53.483Z,31.56
2018-07-24T10:34:22.553Z,31.34
2018-07-24T10:36:51.475Z,32.04
2018-07-24T10:39:20.371Z,30.59
2018-07-24T10:41:49.271Z,29.56
2018-07-24T10:44:18.197Z,28.00
2018-07-24T10:46:47.149Z,28.71
2018-07-24T10:49:16.065Z,30.42
2018-07-24T10:51:44.959Z,29.75
2018-07-24T10:54:13.892Z,31.29
2018-07-24T10:56:42.796Z,32.81
2018-07-24T10:59:11.705Z,32.82
2018-07-24T11:01:40.656Z,32.22
2018-07-24T11:04:09.594Z,30.39
2018-07-24T11:06:38.500Z,27.96
2018-07-24T11:09:08.344Z,28.90
2018-07-24T11:11:37.235Z,30.34
2018-07-24T11:14:06.128Z,31.14
2018-07-24T11:16:35.058Z,31.98
2018-07-24T11:19:03.912Z,30.61
2018-07-24T11:21:33.541Z,31.58
2018-07-24T11:24:02.537Z,32.94
2018-07-24T11:26:31.773Z,32.03
2018-07-24T11:29:00.679Z,32.17
2018-07-24T11:31:29.599Z,31.85
2018-07-24T11:33:58.592Z,32.73
2018-07-24T11:36:27.491Z,31.49
2018-07-24T11:38:56.396Z,30.29
2018-07-24T11:41:25.375Z,29.70
2018-07-24T11:43:55.256Z,28.42
2018-07-24T11:46:24.190Z,29.54
2018-07-24T11:48:53.057Z,30.04
2018-07-24T11:51:22.065Z,28.98
2018-07-24T11:53:50.976Z,29.34
2018-07-24T11:56:19.908Z,30.78
2018-07-24T11:58:48.840Z,28.91
2018-07-24T12:01:17.976Z,28.13
2018-07-24T12:03:46.876Z,29.21
2018-07-24T12:06:15.785Z,32.10
2018-07-24T12:08:44.799Z,30.33
2018-07-24T12:11:14.751Z,30.19
2018-07-24T12:13:43.650Z,31.81
2018-07-24T12:16:12.549Z,28.87
2018-07-24T12:18:41.437Z,29.33
2018-07-24T12:21:10.347Z,29.49
2018-07-24T12:23:39.275Z,29.82
2018-07-24T12:26:08.199Z,30.23
2018-07-24T12:28:37.209Z,30.14
2018-07-24T12:31:06.132Z,27.91
2018-07-24T12:33:35.028Z,26.17
2018-07-24T12:36:04.049Z,29.53
2018-07-24T12:38:32.891Z,27.82
2018-07-24T12:41:01.899Z,27.20
2018-07-24T12:43:30.891Z,27.22
2018-07-24T12:46:01.817Z,28.55
2018-07-24T12:48:31.082Z,28.55
2018-07-24T12:51:00.749Z,27.27
2018-07-24T12:53:30.011Z,27.98
2018-07-24T12:55:58.988Z,27.96
2018-07-24T12:58:27.893Z,28.94
2018-07-24T13:00:56.850Z,29.12
2018-07-24T13:03:25.752Z,29.65
2018-07-24T13:05:54.721Z,29.69
2018-07-24T13:08:23.639Z,29.53
2018-07-24T13:10:52.629Z,27.71
2018-07-24T13:13:21.484Z,28.04
2018-07-24T13:15:50.400Z,31.38
2018-07-24T13:18:19.434Z,29.28
2018-07-24T13:20:48.320Z,27.82
2018-07-24T13:23:17.332Z,28.96
2018-07-24T13:25:46.376Z,28.63
2018-07-24T13:28:15.312Z,29.00
2018-07-24T13:30:44.212Z,28.58
2018-07-24T13:33:13.123Z,29.08
2018-07-24T13:35:42.056Z,31.37
2018-07-24T13:38:10.974Z,28.21
2018-07-24T13:40:39.876Z,30.08
2018-07-24T13:43:08.880Z,27.29
2018-07-24T13:45:37.803Z,28.19
2018-07-24T13:48:07.019Z,29.07
2018-07-24T13:50:36.264Z,26.33
2018-07-24T13:53:05.908Z,27.83
2018-07-24T13:55:34.956Z,27.11
2018-07-24T13:58:03.977Z,27.73
2018-07-24T14:00:32.870Z,29.36
2018-07-24T14:03:01.803Z,28.01
2018-07-24T14:05:31.648Z,28.86
2018-07-24T14:08:00.509Z,29.73
2018-07-24T14:10:29.663Z,29.31
2018-07-24T14:12:58.657Z,27.53
2018-07-24T14:15:27.591Z,27.92
2018-07-24T14:17:56.561Z,28.89
2018-07-24T14:20:25.469Z,26.37
2018-07-24T14:22:54.498Z,27.46
2018-07-24T14:25:23.411Z,28.60
2018-07-24T14:27:52.560Z,28.22
2018-07-24T14:30:21.547Z,28.68
2018-07-24T14:32:50.471Z,29.12
2018-07-24T14:35:19.429Z,28.29
2018-07-24T15:59:47.289Z,28.65
2018-07-24T16:02:16.167Z,29.65
2018-07-24T16:04:45.069Z,29.45
2018-07-24T16:07:14.068Z,28.98
2018-07-24T16:09:43.068Z,28.91
2018-07-24T16:12:12.104Z,28.89
2018-07-24T16:14:41.070Z,30.16
2018-07-24T16:17:09.975Z,30.14
2018-07-24T16:19:45.780Z,29.50
2018-07-24T16:22:14.882Z,29.93
2018-07-24T16:24:43.821Z,29.55
2018-07-24T16:27:12.736Z,32.03
2018-07-24T16:29:41.631Z,30.50
2018-07-24T16:32:10.755Z,31.73
2018-07-24T16:34:39.663Z,31.58
2018-07-24T16:37:08.573Z,31.51
2018-07-24T16:39:37.460Z,32.13
2018-07-24T16:42:06.356Z,32.81
2018-07-24T16:44:35.268Z,32.18
2018-07-24T16:47:04.204Z,31.69
2018-07-24T16:49:33.135Z,31.57
2018-07-24T16:52:02.096Z,31.60
2018-07-24T16:54:31.039Z,32.13
2018-07-24T16:56:59.937Z,31.82
2018-07-24T16:59:28.850Z,31.92
2018-07-24T17:01:57.755Z,32.41
2018-07-24T17:04:26.647Z,33.38
2018-07-24T17:06:56.610Z,32.17
2018-07-24T17:09:25.516Z,33.28
2018-07-24T17:11:54.415Z,34.27
2018-07-24T17:14:23.323Z,33.92
2018-07-24T17:16:52.234Z,34.02
2018-07-24T17:19:21.138Z,34.33
2018-07-24T17:21:50.078Z,35.13
2018-07-24T17:24:19.196Z,34.28
2018-07-24T17:26:48.122Z,35.23
2018-07-24T17:29:17.056Z,36.37
2018-07-24T17:31:45.987Z,35.74
2018-07-24T17:34:14.871Z,35.68
2018-07-24T17:36:43.825Z,36.60
2018-07-24T17:39:13.739Z,35.39
2018-07-24T17:41:42.798Z,36.27
2018-07-24T17:44:11.629Z,36.90
2018-07-24T17:46:40.527Z,36.36
2018-07-24T17:49:09.455Z,35.92
2018-07-24T17:51:38.488Z,36.20
2018-07-24T17:54:07.494Z,37.53
2018-07-24T17:56:36.379Z,37.15
2018-07-24T17:59:05.295Z,37.03
2018-07-24T18:01:34.188Z,36.86
2018-07-24T18:04:03.150Z,37.58
2018-07-24T18:06:32.025Z,38.30
2018-07-24T18:09:00.939Z,38.09
2018-07-24T18:11:29.944Z,37.56
2018-07-24T18:13:58.952Z,37.85
2018-07-24T18:16:27.866Z,38.23
2018-07-24T18:18:56.767Z,39.40
2018-07-24T18:21:25.709Z,40.26
2018-07-24T18:23:54.588Z,40.35
2018-07-24T18:26:23.482Z,39.97
2018-07-24T18:28:52.384Z,40.20
2018-07-24T18:31:21.427Z,39.30
2018-07-24T18:33:50.349Z,39.88
2018-07-24T18:36:19.279Z,41.84
2018-07-24T18:38:48.179Z,41.27
2018-07-24T18:41:17.109Z,41.62
2018-07-24T18:43:45.981Z,42.00
2018-07-24T18:46:15.195Z,41.78
2018-07-24T18:48:44.096Z,43.55
2018-07-24T18:51:12.999Z,43.61
2018-07-24T18:53:41.906Z,43.25
2018-07-24T18:56:10.786Z,42.76
2018-07-24T18:58:39.803Z,44.34
2018-07-24T19:01:08.756Z,44.38
2018-07-24T19:03:37.695Z,44.44
2018-07-24T19:06:06.579Z,46.08
2018-07-24T19:08:35.463Z,44.63
2018-07-24T19:11:04.378Z,45.49
2018-07-24T19:13:33.329Z,47.38
2018-07-24T19:16:02.296Z,47.98
2018-07-24T19:18:31.188Z,47.06
2018-07-24T19:21:00.077Z,46.83
2018-07-24T19:23:29.083Z,47.69
2018-07-24T19:25:58.043Z,48.40
2018-07-24T19:28:26.988Z,48.83
2018-07-24T19:30:55.902Z,49.59
2018-07-24T19:33:24.824Z,48.98
2018-07-24T19:35:53.744Z,48.98
2018-07-24T19:38:22.716Z,49.41
2018-07-24T19:40:51.667Z,50.18
2018-07-24T19:43:20.652Z,49.14
2018-07-24T19:45:49.546Z,50.50
2018-07-24T19:48:18.503Z,50.38
2018-07-24T19:50:47.499Z,50.13
2018-07-24T19:53:16.411Z,51.03
2018-07-24T19:55:45.392Z,50.88
2018-07-24T19:58:14.291Z,50.32
2018-07-24T20:00:43.236Z,50.60
2018-07-24T20:03:12.167Z,50.99
2018-07-24T20:05:41.204Z,51.89
2018-07-24T20:08:10.122Z,51.50
2018-07-24T20:10:39.021Z,52.03
2018-07-24T20:13:07.943Z,51.67
2018-07-24T20:15:36.852Z,51.75
2018-07-24T20:18:05.743Z,51.94
2018-07-24T20:20:34.671Z,51.72
2018-07-24T20:23:03.773Z,52.10
2018-07-24T20:25:32.627Z,51.84
2018-07-24T20:28:01.600Z,52.14
2018-07-24T20:30:30.967Z,53.90
2018-07-24T20:32:59.841Z,52.90
2018-07-24T20:35:28.799Z,52.45
2018-07-24T20:37:57.634Z,53.79
2018-07-24T20:40:33.249Z,52.55
2018-07-24T20:43:02.160Z,53.10
2018-07-24T20:45:31.325Z,54.02
2018-07-24T20:48:00.233Z,53.67
2018-07-24T20:50:29.140Z,53.75
2018-07-24T20:52:58.092Z,53.84
2018-07-24T20:55:27.016Z,53.53
2018-07-24T20:57:55.932Z,53.66
2018-07-24T21:00:25.470Z,53.42
2018-07-24T21:02:54.979Z,53.57
2018-07-24T21:05:24.522Z,55.17
2018-07-24T21:07:53.872Z,55.04
2018-07-24T21:10:23.452Z,54.75
2018-07-24T21:12:52.506Z,54.89
2018-07-24T21:15:21.387Z,54.76
2018-07-24T21:17:50.367Z,54.92
2018-07-24T21:20:19.695Z,55.50
2018-07-24T21:22:48.669Z,54.91
2018-07-24T21:25:17.655Z,55.66
2018-07-24T21:27:46.543Z,55.49
2018-07-24T21:30:15.519Z,55.26
2018-07-24T21:32:44.573Z,56.28
2018-07-24T21:35:13.503Z,55.20
2018-07-24T21:37:42.484Z,55.64
2018-07-24T21:40:12.579Z,55.04
2018-07-24T21:42:42.045Z,55.71
2018-07-24T21:45:11.128Z,55.51
2018-07-24T21:47:40.124Z,56.03
2018-07-24T21:50:09.122Z,56.70
2018-07-24T21:52:38.077Z,56.39
2018-07-24T21:55:06.993Z,58.03
2018-07-24T21:57:35.887Z,57.82
2018-07-24T22:00:07.502Z,57.56
2018-07-24T22:02:36.408Z,56.46
2018-07-24T22:05:05.419Z,57.02
2018-07-24T22:07:35.077Z,57.82
2018-07-24T22:10:08.353Z,58.52
2018-07-24T22:12:37.850Z,61.03
2018-07-24T22:15:15.306Z,60.22
2018-07-24T22:17:44.569Z,61.70
2018-07-24T22:20:13.560Z,59.58
2018-07-24T22:22:42.524Z,61.10
2018-07-24T22:25:11.487Z,61.95
2018-07-24T22:27:40.475Z,62.03
2018-07-24T22:30:09.909Z,62.19
2018-07-24T22:32:38.894Z,61.77
2018-07-24T22:35:08.811Z,63.05
2018-07-24T22:37:38.192Z,63.38
2018-07-24T22:40:08.069Z,63.62
2018-07-24T22:42:36.996Z,63.86
2018-07-24T22:45:06.372Z,63.50
2018-07-24T22:47:35.300Z,64.06
2018-07-24T22:50:04.590Z,64.33
2018-07-24T22:52:33.488Z,63.92
2018-07-24T22:55:02.526Z,64.93
2018-07-24T22:57:31.454Z,64.68
2018-07-24T23:00:00.331Z,65.74
2018-07-24T23:02:29.287Z,66.31
2018-07-24T23:04:58.185Z,66.28
2018-07-24T23:07:27.163Z,65.56
2018-07-24T23:09:56.089Z,66.05
2018-07-24T23:12:25.088Z,66.82
2018-07-24T23:14:54.030Z,66.41
2018-07-24T23:17:23.032Z,66.10
2018-07-24T23:19:51.957Z,66.96
2018-07-24T23:22:20.860Z,67.01
2018-07-24T23:24:49.782Z,66.69
2018-07-24T23:29:46.504Z,66.42
2018-07-24T23:32:15.399Z,67.97
2018-07-24T23:34:44.334Z,67.42
2018-07-24T23:37:13.279Z,67.47
2018-07-24T23:39:42.194Z,68.03
2018-07-24T23:42:11.269Z,67.97
2018-07-24T23:44:40.268Z,67.31
2018-07-24T23:47:09.260Z,67.47
2018-07-24T23:49:38.215Z,68.08
2018-07-24T23:52:07.150Z,68.25
2018-07-24T23:54:36.096Z,67.43
2018-07-24T23:57:04.983Z,68.06
2018-07-24T23:59:33.887Z,68.47
